sensor_id;sensor_type;location;lat;lon;timestamp;P1;durP1;ratioP1;P2;durP2;ratioP2
32196;SDS011;18697;42.770;23.400;2023-12-20T00:01:26;236.43;;;91.80;;
32196;SDS011;18697;42.770;23.400;2023-12-20T00:03:51;172.20;;;81.35;;
32196;SDS011;18697;42.770;23.400;2023-12-20T00:06:17;139.35;;;70.15;;
32196;SDS011;18697;42.770;23.400;2023-12-20T00:08:42;144.93;;;68.38;;
32196;SDS011;18697;42.770;23.400;2023-12-20T00:11:09;137.18;;;68.10;;
32196;SDS011;18697;42.770;23.400;2023-12-20T00:13:34;128.93;;;64.07;;
32196;SDS011;18697;42.770;23.400;2023-12-20T00:15:59;130.80;;;64.30;;
32196;SDS011;18697;42.770;23.400;2023-12-20T00:18:25;169.93;;;70.45;;
32196;SDS011;18697;42.770;23.400;2023-12-20T00:20:50;124.93;;;59.85;;
32196;SDS011;18697;42.770;23.400;2023-12-20T00:23:15;122.00;;;60.25;;
32196;SDS011;18697;42.770;23.400;2023-12-20T00:25:41;127.35;;;60.25;;
32196;SDS011;18697;42.770;23.400;2023-12-20T00:28:06;119.38;;;59.47;;
32196;SDS011;18697;42.770;23.400;2023-12-20T00:30:32;117.18;;;57.15;;
32196;SDS011;18697;42.770;23.400;2023-12-20T00:32:57;111.75;;;55.72;;
32196;SDS011;18697;42.770;23.400;2023-12-20T00:35:22;114.75;;;55.88;;
32196;SDS011;18697;42.770;23.400;2023-12-20T00:37:48;112.53;;;56.00;;
32196;SDS011;18697;42.770;23.400;2023-12-20T00:40:13;118.85;;;55.67;;
32196;SDS011;18697;42.770;23.400;2023-12-20T00:42:40;118.35;;;55.45;;
32196;SDS011;18697;42.770;23.400;2023-12-20T00:45:05;108.00;;;55.97;;
32196;SDS011;18697;42.770;23.400;2023-12-20T00:47:31;120.95;;;58.25;;
32196;SDS011;18697;42.770;23.400;2023-12-20T00:49:57;112.38;;;56.03;;
32196;SDS011;18697;42.770;23.400;2023-12-20T00:52:23;155.20;;;65.07;;
32196;SDS011;18697;42.770;23.400;2023-12-20T00:54:48;118.45;;;58.92;;
32196;SDS011;18697;42.770;23.400;2023-12-20T00:57:15;137.05;;;60.22;;
32196;SDS011;18697;42.770;23.400;2023-12-20T00:59:40;116.68;;;58.17;;
32196;SDS011;18697;42.770;23.400;2023-12-20T01:02:06;119.15;;;58.33;;
32196;SDS011;18697;42.770;23.400;2023-12-20T01:04:31;123.95;;;55.58;;
32196;SDS011;18697;42.770;23.400;2023-12-20T01:06:57;125.82;;;59.80;;
32196;SDS011;18697;42.770;23.400;2023-12-20T01:09:22;115.13;;;58.33;;
32196;SDS011;18697;42.770;23.400;2023-12-20T01:11:51;108.60;;;55.17;;
32196;SDS011;18697;42.770;23.400;2023-12-20T01:14:16;103.78;;;50.97;;
32196;SDS011;18697;42.770;23.400;2023-12-20T01:16:42;122.47;;;59.22;;
32196;SDS011;18697;42.770;23.400;2023-12-20T01:19:07;128.23;;;59.97;;
32196;SDS011;18697;42.770;23.400;2023-12-20T01:21:32;131.00;;;58.45;;
32196;SDS011;18697;42.770;23.400;2023-12-20T01:23:58;122.43;;;58.58;;
32196;SDS011;18697;42.770;23.400;2023-12-20T01:26:23;131.70;;;60.15;;
32196;SDS011;18697;42.770;23.400;2023-12-20T01:28:49;133.88;;;62.25;;
32196;SDS011;18697;42.770;23.400;2023-12-20T01:31:14;129.38;;;61.28;;
32196;SDS011;18697;42.770;23.400;2023-12-20T01:33:39;130.55;;;65.38;;
32196;SDS011;18697;42.770;23.400;2023-12-20T01:36:05;143.25;;;65.15;;
32196;SDS011;18697;42.770;23.400;2023-12-20T01:38:30;125.13;;;60.45;;
32196;SDS011;18697;42.770;23.400;2023-12-20T01:40:56;126.28;;;61.53;;
32196;SDS011;18697;42.770;23.400;2023-12-20T01:43:21;125.10;;;59.38;;
32196;SDS011;18697;42.770;23.400;2023-12-20T01:45:47;141.23;;;71.32;;
32196;SDS011;18697;42.770;23.400;2023-12-20T01:48:12;123.45;;;61.38;;
32196;SDS011;18697;42.770;23.400;2023-12-20T01:50:40;126.03;;;63.33;;
32196;SDS011;18697;42.770;23.400;2023-12-20T01:53:08;128.63;;;62.00;;
32196;SDS011;18697;42.770;23.400;2023-12-20T01:55:36;117.80;;;58.35;;
32196;SDS011;18697;42.770;23.400;2023-12-20T01:58:05;125.15;;;59.38;;
32196;SDS011;18697;42.770;23.400;2023-12-20T02:00:31;133.10;;;59.35;;
32196;SDS011;18697;42.770;23.400;2023-12-20T02:02:57;137.02;;;59.25;;
32196;SDS011;18697;42.770;23.400;2023-12-20T02:05:26;124.35;;;57.47;;
32196;SDS011;18697;42.770;23.400;2023-12-20T02:07:53;133.90;;;61.70;;
32196;SDS011;18697;42.770;23.400;2023-12-20T02:10:18;126.20;;;59.30;;
32196;SDS011;18697;42.770;23.400;2023-12-20T02:12:44;124.90;;;59.25;;
32196;SDS011;18697;42.770;23.400;2023-12-20T02:15:09;168.00;;;85.65;;
32196;SDS011;18697;42.770;23.400;2023-12-20T02:17:35;135.55;;;62.55;;
32196;SDS011;18697;42.770;23.400;2023-12-20T02:20:01;134.15;;;61.85;;
32196;SDS011;18697;42.770;23.400;2023-12-20T02:22:27;130.40;;;60.92;;
32196;SDS011;18697;42.770;23.400;2023-12-20T02:24:52;115.80;;;58.33;;
32196;SDS011;18697;42.770;23.400;2023-12-20T02:27:18;146.02;;;58.40;;
32196;SDS011;18697;42.770;23.400;2023-12-20T02:29:44;117.97;;;57.72;;
32196;SDS011;18697;42.770;23.400;2023-12-20T02:32:12;131.32;;;58.35;;
32196;SDS011;18697;42.770;23.400;2023-12-20T02:34:37;124.03;;;56.17;;
32196;SDS011;18697;42.770;23.400;2023-12-20T02:37:03;110.07;;;53.72;;
32196;SDS011;18697;42.770;23.400;2023-12-20T02:39:28;146.68;;;57.65;;
32196;SDS011;18697;42.770;23.400;2023-12-20T02:41:54;119.68;;;57.35;;
32196;SDS011;18697;42.770;23.400;2023-12-20T02:44:19;122.97;;;55.38;;
32196;SDS011;18697;42.770;23.400;2023-12-20T02:46:44;101.70;;;51.75;;
32196;SDS011;18697;42.770;23.400;2023-12-20T02:49:10;121.07;;;56.25;;
32196;SDS011;18697;42.770;23.400;2023-12-20T02:51:35;112.63;;;53.35;;
32196;SDS011;18697;42.770;23.400;2023-12-20T02:54:03;111.20;;;54.67;;
32196;SDS011;18697;42.770;23.400;2023-12-20T02:56:29;113.22;;;57.15;;
32196;SDS011;18697;42.770;23.400;2023-12-20T02:58:54;106.88;;;54.35;;
32196;SDS011;18697;42.770;23.400;2023-12-20T03:01:19;100.70;;;53.95;;
32196;SDS011;18697;42.770;23.400;2023-12-20T03:03:45;118.05;;;56.03;;
32196;SDS011;18697;42.770;23.400;2023-12-20T03:06:10;121.20;;;56.60;;
32196;SDS011;18697;42.770;23.400;2023-12-20T03:08:35;121.47;;;54.97;;
32196;SDS011;18697;42.770;23.400;2023-12-20T03:11:01;108.75;;;53.17;;
32196;SDS011;18697;42.770;23.400;2023-12-20T03:13:26;105.15;;;53.95;;
32196;SDS011;18697;42.770;23.400;2023-12-20T03:15:52;121.53;;;53.90;;
32196;SDS011;18697;42.770;23.400;2023-12-20T03:18:17;125.40;;;54.10;;
32196;SDS011;18697;42.770;23.400;2023-12-20T03:20:43;105.80;;;52.72;;
32196;SDS011;18697;42.770;23.400;2023-12-20T03:23:08;110.40;;;55.38;;
32196;SDS011;18697;42.770;23.400;2023-12-20T03:25:34;111.30;;;54.40;;
32196;SDS011;18697;42.770;23.400;2023-12-20T03:27:59;113.50;;;54.00;;
32196;SDS011;18697;42.770;23.400;2023-12-20T03:30:25;140.52;;;54.67;;
32196;SDS011;18697;42.770;23.400;2023-12-20T03:32:51;107.22;;;52.10;;
32196;SDS011;18697;42.770;23.400;2023-12-20T03:35:16;103.40;;;54.92;;
32196;SDS011;18697;42.770;23.400;2023-12-20T03:37:42;109.40;;;53.90;;
32196;SDS011;18697;42.770;23.400;2023-12-20T03:40:07;113.78;;;53.10;;
32196;SDS011;18697;42.770;23.400;2023-12-20T03:42:32;107.47;;;54.53;;
32196;SDS011;18697;42.770;23.400;2023-12-20T03:44:58;109.50;;;52.53;;
32196;SDS011;18697;42.770;23.400;2023-12-20T03:47:23;98.95;;;51.42;;
32196;SDS011;18697;42.770;23.400;2023-12-20T03:49:48;126.20;;;53.05;;
32196;SDS011;18697;42.770;23.400;2023-12-20T03:52:14;103.25;;;52.92;;
32196;SDS011;18697;42.770;23.400;2023-12-20T03:54:39;138.55;;;58.40;;
32196;SDS011;18697;42.770;23.400;2023-12-20T03:57:07;121.47;;;57.25;;
32196;SDS011;18697;42.770;23.400;2023-12-20T03:59:36;141.00;;;64.90;;
32196;SDS011;18697;42.770;23.400;2023-12-20T04:02:02;160.23;;;73.25;;
32196;SDS011;18697;42.770;23.400;2023-12-20T04:04:28;171.65;;;66.85;;
32196;SDS011;18697;42.770;23.400;2023-12-20T04:06:54;108.95;;;56.08;;
32196;SDS011;18697;42.770;23.400;2023-12-20T04:09:19;129.32;;;58.63;;
32196;SDS011;18697;42.770;23.400;2023-12-20T04:11:44;138.95;;;61.78;;
32196;SDS011;18697;42.770;23.400;2023-12-20T04:14:10;126.90;;;57.80;;
32196;SDS011;18697;42.770;23.400;2023-12-20T04:16:35;115.93;;;57.50;;
32196;SDS011;18697;42.770;23.400;2023-12-20T04:19:01;120.85;;;57.65;;
32196;SDS011;18697;42.770;23.400;2023-12-20T04:21:26;120.93;;;53.30;;
32196;SDS011;18697;42.770;23.400;2023-12-20T04:23:51;106.72;;;54.28;;
32196;SDS011;18697;42.770;23.400;2023-12-20T04:26:17;115.30;;;53.40;;
32196;SDS011;18697;42.770;23.400;2023-12-20T04:28:42;112.25;;;54.22;;
32196;SDS011;18697;42.770;23.400;2023-12-20T04:31:07;114.78;;;53.53;;
32196;SDS011;18697;42.770;23.400;2023-12-20T04:33:33;153.57;;;72.07;;
32196;SDS011;18697;42.770;23.400;2023-12-20T04:35:58;114.93;;;58.42;;
32196;SDS011;18697;42.770;23.400;2023-12-20T04:38:25;105.72;;;52.83;;
32196;SDS011;18697;42.770;23.400;2023-12-20T04:40:50;124.25;;;52.88;;
32196;SDS011;18697;42.770;23.400;2023-12-20T04:43:16;113.35;;;51.17;;
32196;SDS011;18697;42.770;23.400;2023-12-20T04:45:41;131.55;;;58.63;;
32196;SDS011;18697;42.770;23.400;2023-12-20T04:48:07;120.53;;;51.58;;
32196;SDS011;18697;42.770;23.400;2023-12-20T04:50:32;115.75;;;53.05;;
32196;SDS011;18697;42.770;23.400;2023-12-20T04:52:58;107.32;;;52.17;;
32196;SDS011;18697;42.770;23.400;2023-12-20T04:55:23;114.20;;;57.75;;
32196;SDS011;18697;42.770;23.400;2023-12-20T04:57:49;118.20;;;50.30;;
32196;SDS011;18697;42.770;23.400;2023-12-20T05:00:14;93.50;;;46.60;;
32196;SDS011;18697;42.770;23.400;2023-12-20T05:02:40;102.78;;;53.05;;
32196;SDS011;18697;42.770;23.400;2023-12-20T05:05:06;105.38;;;48.85;;
32196;SDS011;18697;42.770;23.400;2023-12-20T05:07:31;90.47;;;45.30;;
32196;SDS011;18697;42.770;23.400;2023-12-20T05:09:56;161.48;;;70.60;;
32196;SDS011;18697;42.770;23.400;2023-12-20T05:12:23;99.43;;;48.95;;
32196;SDS011;18697;42.770;23.400;2023-12-20T05:14:48;81.50;;;44.10;;
32196;SDS011;18697;42.770;23.400;2023-12-20T05:17:13;90.38;;;45.60;;
32196;SDS011;18697;42.770;23.400;2023-12-20T05:19:39;78.55;;;42.80;;
32196;SDS011;18697;42.770;23.400;2023-12-20T05:22:04;92.55;;;45.53;;
32196;SDS011;18697;42.770;23.400;2023-12-20T05:24:29;78.78;;;43.20;;
32196;SDS011;18697;42.770;23.400;2023-12-20T05:26:55;99.28;;;42.75;;
32196;SDS011;18697;42.770;23.400;2023-12-20T05:29:20;82.05;;;42.72;;
32196;SDS011;18697;42.770;23.400;2023-12-20T05:31:46;84.25;;;44.53;;
32196;SDS011;18697;42.770;23.400;2023-12-20T05:34:11;85.22;;;43.83;;
32196;SDS011;18697;42.770;23.400;2023-12-20T05:36:36;88.30;;;44.03;;
32196;SDS011;18697;42.770;23.400;2023-12-20T05:39:02;90.32;;;43.35;;
32196;SDS011;18697;42.770;23.400;2023-12-20T05:41:32;86.13;;;45.35;;
32196;SDS011;18697;42.770;23.400;2023-12-20T05:43:58;89.55;;;45.50;;
32196;SDS011;18697;42.770;23.400;2023-12-20T05:46:24;84.68;;;45.92;;
32196;SDS011;18697;42.770;23.400;2023-12-20T05:48:50;83.72;;;43.17;;
32196;SDS011;18697;42.770;23.400;2023-12-20T05:51:16;107.60;;;49.67;;
32196;SDS011;18697;42.770;23.400;2023-12-20T05:53:42;160.73;;;89.72;;
32196;SDS011;18697;42.770;23.400;2023-12-20T05:56:07;111.45;;;61.95;;
32196;SDS011;18697;42.770;23.400;2023-12-20T05:58:33;93.18;;;46.05;;
32196;SDS011;18697;42.770;23.400;2023-12-20T06:00:58;83.32;;;44.83;;
32196;SDS011;18697;42.770;23.400;2023-12-20T06:03:24;82.93;;;42.95;;
32196;SDS011;18697;42.770;23.400;2023-12-20T06:05:49;95.80;;;47.88;;
32196;SDS011;18697;42.770;23.400;2023-12-20T06:08:14;97.90;;;48.58;;
32196;SDS011;18697;42.770;23.400;2023-12-20T06:10:40;94.32;;;45.20;;
32196;SDS011;18697;42.770;23.400;2023-12-20T06:13:05;86.70;;;45.58;;
32196;SDS011;18697;42.770;23.400;2023-12-20T06:15:32;86.43;;;44.17;;
32196;SDS011;18697;42.770;23.400;2023-12-20T06:17:57;88.50;;;47.25;;
32196;SDS011;18697;42.770;23.400;2023-12-20T06:20:23;94.15;;;45.50;;
32196;SDS011;18697;42.770;23.400;2023-12-20T06:22:48;80.25;;;44.78;;
32196;SDS011;18697;42.770;23.400;2023-12-20T06:25:14;85.40;;;44.03;;
32196;SDS011;18697;42.770;23.400;2023-12-20T06:27:40;92.82;;;46.80;;
32196;SDS011;18697;42.770;23.400;2023-12-20T06:30:06;78.13;;;44.50;;
32196;SDS011;18697;42.770;23.400;2023-12-20T06:32:34;102.57;;;45.33;;
32196;SDS011;18697;42.770;23.400;2023-12-20T06:34:59;84.70;;;43.58;;
32196;SDS011;18697;42.770;23.400;2023-12-20T06:37:24;84.40;;;44.80;;
32196;SDS011;18697;42.770;23.400;2023-12-20T06:39:50;84.10;;;44.40;;
32196;SDS011;18697;42.770;23.400;2023-12-20T06:42:15;83.15;;;43.60;;
32196;SDS011;18697;42.770;23.400;2023-12-20T06:44:40;88.40;;;42.45;;
32196;SDS011;18697;42.770;23.400;2023-12-20T06:47:06;82.35;;;40.92;;
32196;SDS011;18697;42.770;23.400;2023-12-20T06:49:31;76.55;;;41.40;;
32196;SDS011;18697;42.770;23.400;2023-12-20T06:51:57;74.35;;;39.85;;
32196;SDS011;18697;42.770;23.400;2023-12-20T06:54:22;92.13;;;41.00;;
32196;SDS011;18697;42.770;23.400;2023-12-20T06:56:48;82.85;;;40.72;;
32196;SDS011;18697;42.770;23.400;2023-12-20T06:59:13;77.07;;;40.13;;
32196;SDS011;18697;42.770;23.400;2023-12-20T07:01:38;104.65;;;55.13;;
32196;SDS011;18697;42.770;23.400;2023-12-20T07:04:04;86.95;;;43.92;;
32196;SDS011;18697;42.770;23.400;2023-12-20T07:06:29;85.55;;;43.90;;
32196;SDS011;18697;42.770;23.400;2023-12-20T07:08:54;84.93;;;41.95;;
32196;SDS011;18697;42.770;23.400;2023-12-20T07:11:20;85.57;;;39.95;;
32196;SDS011;18697;42.770;23.400;2023-12-20T07:13:45;86.78;;;40.45;;
32196;SDS011;18697;42.770;23.400;2023-12-20T07:16:10;78.63;;;41.35;;
32196;SDS011;18697;42.770;23.400;2023-12-20T07:18:37;94.95;;;41.83;;
32196;SDS011;18697;42.770;23.400;2023-12-20T07:21:02;84.50;;;41.65;;
32196;SDS011;18697;42.770;23.400;2023-12-20T07:23:28;75.78;;;39.30;;
32196;SDS011;18697;42.770;23.400;2023-12-20T07:25:53;80.93;;;40.60;;
32196;SDS011;18697;42.770;23.400;2023-12-20T07:28:19;88.15;;;40.90;;
32196;SDS011;18697;42.770;23.400;2023-12-20T07:30:44;87.00;;;39.75;;
32196;SDS011;18697;42.770;23.400;2023-12-20T07:33:09;88.93;;;42.45;;
32196;SDS011;18697;42.770;23.400;2023-12-20T07:35:37;92.18;;;43.92;;
32196;SDS011;18697;42.770;23.400;2023-12-20T07:38:02;96.88;;;43.92;;
32196;SDS011;18697;42.770;23.400;2023-12-20T07:40:28;102.68;;;46.15;;
32196;SDS011;18697;42.770;23.400;2023-12-20T07:42:53;103.07;;;49.17;;
32196;SDS011;18697;42.770;23.400;2023-12-20T07:45:18;96.40;;;45.85;;
32196;SDS011;18697;42.770;23.400;2023-12-20T07:47:44;100.82;;;46.72;;
32196;SDS011;18697;42.770;23.400;2023-12-20T07:50:09;95.60;;;44.90;;
32196;SDS011;18697;42.770;23.400;2023-12-20T07:52:35;91.38;;;45.88;;
32196;SDS011;18697;42.770;23.400;2023-12-20T07:55:00;100.32;;;44.38;;
32196;SDS011;18697;42.770;23.400;2023-12-20T07:57:28;93.20;;;44.58;;
32196;SDS011;18697;42.770;23.400;2023-12-20T07:59:54;107.50;;;50.17;;
32196;SDS011;18697;42.770;23.400;2023-12-20T08:02:19;111.80;;;48.88;;
32196;SDS011;18697;42.770;23.400;2023-12-20T08:04:45;103.35;;;46.83;;
32196;SDS011;18697;42.770;23.400;2023-12-20T08:07:10;86.97;;;44.47;;
32196;SDS011;18697;42.770;23.400;2023-12-20T08:09:35;95.85;;;46.17;;
32196;SDS011;18697;42.770;23.400;2023-12-20T08:12:01;94.70;;;45.97;;
32196;SDS011;18697;42.770;23.400;2023-12-20T08:14:27;94.60;;;42.88;;
32196;SDS011;18697;42.770;23.400;2023-12-20T08:16:53;100.93;;;43.60;;
32196;SDS011;18697;42.770;23.400;2023-12-20T08:19:18;82.93;;;43.75;;
32196;SDS011;18697;42.770;23.400;2023-12-20T08:21:43;87.30;;;45.05;;
32196;SDS011;18697;42.770;23.400;2023-12-20T08:24:09;91.78;;;45.88;;
32196;SDS011;18697;42.770;23.400;2023-12-20T08:26:34;89.55;;;43.85;;
32196;SDS011;18697;42.770;23.400;2023-12-20T08:28:59;98.78;;;45.60;;
32196;SDS011;18697;42.770;23.400;2023-12-20T08:31:25;102.47;;;47.55;;
32196;SDS011;18697;42.770;23.400;2023-12-20T08:33:51;99.03;;;45.42;;
32196;SDS011;18697;42.770;23.400;2023-12-20T08:36:18;94.03;;;45.95;;
32196;SDS011;18697;42.770;23.400;2023-12-20T08:38:46;94.78;;;45.58;;
32196;SDS011;18697;42.770;23.400;2023-12-20T08:41:12;88.40;;;44.65;;
32196;SDS011;18697;42.770;23.400;2023-12-20T08:43:37;96.93;;;45.58;;
32196;SDS011;18697;42.770;23.400;2023-12-20T08:46:05;98.47;;;45.13;;
32196;SDS011;18697;42.770;23.400;2023-12-20T08:48:30;105.78;;;46.08;;
32196;SDS011;18697;42.770;23.400;2023-12-20T08:50:56;102.43;;;46.30;;
32196;SDS011;18697;42.770;23.400;2023-12-20T08:53:21;102.35;;;46.22;;
32196;SDS011;18697;42.770;23.400;2023-12-20T08:55:46;96.65;;;45.25;;
32196;SDS011;18697;42.770;23.400;2023-12-20T08:58:12;102.07;;;46.85;;
32196;SDS011;18697;42.770;23.400;2023-12-20T09:00:37;90.95;;;44.13;;
32196;SDS011;18697;42.770;23.400;2023-12-20T09:03:03;96.95;;;43.10;;
32196;SDS011;18697;42.770;23.400;2023-12-20T09:05:29;92.93;;;43.38;;
32196;SDS011;18697;42.770;23.400;2023-12-20T09:07:55;98.65;;;45.05;;
32196;SDS011;18697;42.770;23.400;2023-12-20T09:10:20;90.05;;;44.28;;
32196;SDS011;18697;42.770;23.400;2023-12-20T09:12:47;87.88;;;42.58;;
32196;SDS011;18697;42.770;23.400;2023-12-20T09:15:13;105.40;;;46.20;;
32196;SDS011;18697;42.770;23.400;2023-12-20T09:17:40;95.40;;;48.10;;
32196;SDS011;18697;42.770;23.400;2023-12-20T09:20:06;123.00;;;56.72;;
32196;SDS011;18697;42.770;23.400;2023-12-20T09:22:33;118.75;;;54.95;;
32196;SDS011;18697;42.770;23.400;2023-12-20T09:24:59;132.05;;;58.95;;
32196;SDS011;18697;42.770;23.400;2023-12-20T09:27:24;116.97;;;55.08;;
32196;SDS011;18697;42.770;23.400;2023-12-20T09:29:49;114.13;;;53.85;;
32196;SDS011;18697;42.770;23.400;2023-12-20T09:32:15;117.75;;;51.75;;
32196;SDS011;18697;42.770;23.400;2023-12-20T09:34:40;144.13;;;64.97;;
32196;SDS011;18697;42.770;23.400;2023-12-20T09:37:06;110.65;;;49.08;;
32196;SDS011;18697;42.770;23.400;2023-12-20T09:39:32;121.60;;;52.78;;
32196;SDS011;18697;42.770;23.400;2023-12-20T09:42:02;118.70;;;51.53;;
32196;SDS011;18697;42.770;23.400;2023-12-20T09:44:29;111.30;;;50.50;;
32196;SDS011;18697;42.770;23.400;2023-12-20T09:46:56;103.60;;;50.67;;
32196;SDS011;18697;42.770;23.400;2023-12-20T09:49:22;111.88;;;52.25;;
32196;SDS011;18697;42.770;23.400;2023-12-20T09:51:50;103.57;;;50.75;;
32196;SDS011;18697;42.770;23.400;2023-12-20T09:54:16;115.00;;;54.47;;
32196;SDS011;18697;42.770;23.400;2023-12-20T09:56:42;130.05;;;60.30;;
32196;SDS011;18697;42.770;23.400;2023-12-20T09:59:08;109.22;;;51.15;;
32196;SDS011;18697;42.770;23.400;2023-12-20T10:01:34;124.32;;;55.55;;
32196;SDS011;18697;42.770;23.400;2023-12-20T10:04:00;130.63;;;54.63;;
32196;SDS011;18697;42.770;23.400;2023-12-20T10:06:27;113.20;;;51.15;;
32196;SDS011;18697;42.770;23.400;2023-12-20T10:08:52;116.13;;;52.83;;
32196;SDS011;18697;42.770;23.400;2023-12-20T10:11:18;118.47;;;52.22;;
32196;SDS011;18697;42.770;23.400;2023-12-20T10:13:44;116.82;;;53.15;;
32196;SDS011;18697;42.770;23.400;2023-12-20T10:16:13;143.15;;;61.55;;
32196;SDS011;18697;42.770;23.400;2023-12-20T10:18:38;128.02;;;59.28;;
32196;SDS011;18697;42.770;23.400;2023-12-20T10:21:04;143.35;;;61.15;;
32196;SDS011;18697;42.770;23.400;2023-12-20T10:23:29;154.45;;;66.80;;
32196;SDS011;18697;42.770;23.400;2023-12-20T10:25:59;160.45;;;69.75;;
32196;SDS011;18697;42.770;23.400;2023-12-20T10:28:25;154.50;;;69.55;;
32196;SDS011;18697;42.770;23.400;2023-12-20T10:30:53;175.70;;;71.63;;
32196;SDS011;18697;42.770;23.400;2023-12-20T10:33:25;158.48;;;67.03;;
32196;SDS011;18697;42.770;23.400;2023-12-20T10:35:53;151.52;;;66.55;;
32196;SDS011;18697;42.770;23.400;2023-12-20T10:38:21;145.25;;;65.22;;
32196;SDS011;18697;42.770;23.400;2023-12-20T10:40:47;138.88;;;62.92;;
32196;SDS011;18697;42.770;23.400;2023-12-20T10:43:12;157.95;;;66.57;;
32196;SDS011;18697;42.770;23.400;2023-12-20T10:45:41;145.98;;;65.30;;
32196;SDS011;18697;42.770;23.400;2023-12-20T10:48:09;157.25;;;65.30;;
32196;SDS011;18697;42.770;23.400;2023-12-20T10:50:36;153.18;;;64.22;;
32196;SDS011;18697;42.770;23.400;2023-12-20T10:53:03;147.23;;;64.13;;
32196;SDS011;18697;42.770;23.400;2023-12-20T10:55:29;158.45;;;67.68;;
32196;SDS011;18697;42.770;23.400;2023-12-20T10:57:54;155.60;;;66.20;;
32196;SDS011;18697;42.770;23.400;2023-12-20T11:00:26;158.77;;;67.68;;
32196;SDS011;18697;42.770;23.400;2023-12-20T11:02:53;150.85;;;66.25;;
32196;SDS011;18697;42.770;23.400;2023-12-20T11:05:25;176.10;;;75.35;;
32196;SDS011;18697;42.770;23.400;2023-12-20T11:08:32;158.68;;;68.45;;
32196;SDS011;18697;42.770;23.400;2023-12-20T11:11:06;153.77;;;68.18;;
32196;SDS011;18697;42.770;23.400;2023-12-20T11:13:40;150.25;;;65.53;;
32196;SDS011;18697;42.770;23.400;2023-12-20T11:16:13;151.32;;;67.20;;
32196;SDS011;18697;42.770;23.400;2023-12-20T11:18:38;165.45;;;72.68;;
32196;SDS011;18697;42.770;23.400;2023-12-20T11:21:05;137.23;;;59.70;;
32196;SDS011;18697;42.770;23.400;2023-12-20T11:23:34;130.10;;;56.13;;
32196;SDS011;18697;42.770;23.400;2023-12-20T11:26:00;144.15;;;60.78;;
32196;SDS011;18697;42.770;23.400;2023-12-20T11:28:27;126.45;;;56.63;;
32196;SDS011;18697;42.770;23.400;2023-12-20T11:30:55;119.80;;;53.60;;
32196;SDS011;18697;42.770;23.400;2023-12-20T11:33:25;122.13;;;52.00;;
32196;SDS011;18697;42.770;23.400;2023-12-20T11:35:51;139.23;;;60.78;;
32196;SDS011;18697;42.770;23.400;2023-12-20T11:38:20;136.15;;;58.33;;
32196;SDS011;18697;42.770;23.400;2023-12-20T11:40:47;128.82;;;57.58;;
32196;SDS011;18697;42.770;23.400;2023-12-20T11:43:29;142.43;;;58.70;;
32196;SDS011;18697;42.770;23.400;2023-12-20T11:46:07;136.80;;;55.95;;
32196;SDS011;18697;42.770;23.400;2023-12-20T11:48:34;128.45;;;57.22;;
32196;SDS011;18697;42.770;23.400;2023-12-20T11:51:02;154.95;;;60.67;;
32196;SDS011;18697;42.770;23.400;2023-12-20T11:53:29;152.10;;;61.88;;
32196;SDS011;18697;42.770;23.400;2023-12-20T11:55:55;157.15;;;65.13;;
32196;SDS011;18697;42.770;23.400;2023-12-20T11:58:21;166.80;;;70.88;;
32196;SDS011;18697;42.770;23.400;2023-12-20T12:00:48;168.98;;;70.47;;
32196;SDS011;18697;42.770;23.400;2023-12-20T12:03:14;145.73;;;65.00;;
32196;SDS011;18697;42.770;23.400;2023-12-20T12:05:40;158.10;;;65.82;;
32196;SDS011;18697;42.770;23.400;2023-12-20T12:08:06;148.70;;;66.50;;
32196;SDS011;18697;42.770;23.400;2023-12-20T12:10:32;159.95;;;67.53;;
32196;SDS011;18697;42.770;23.400;2023-12-20T12:12:58;146.70;;;58.83;;
32196;SDS011;18697;42.770;23.400;2023-12-20T12:15:23;129.43;;;51.35;;
32196;SDS011;18697;42.770;23.400;2023-12-20T12:17:53;118.55;;;50.35;;
32196;SDS011;18697;42.770;23.400;2023-12-20T12:20:20;143.02;;;55.38;;
32196;SDS011;18697;42.770;23.400;2023-12-20T12:22:45;139.15;;;52.00;;
32196;SDS011;18697;42.770;23.400;2023-12-20T12:25:15;113.30;;;51.13;;
32196;SDS011;18697;42.770;23.400;2023-12-20T12:27:41;214.45;;;84.45;;
32196;SDS011;18697;42.770;23.400;2023-12-20T12:30:08;165.95;;;64.45;;
32196;SDS011;18697;42.770;23.400;2023-12-20T12:32:34;120.40;;;50.30;;
32196;SDS011;18697;42.770;23.400;2023-12-20T12:35:00;167.48;;;61.90;;
32196;SDS011;18697;42.770;23.400;2023-12-20T12:37:28;153.35;;;71.75;;
32196;SDS011;18697;42.770;23.400;2023-12-20T12:39:53;128.50;;;50.58;;
32196;SDS011;18697;42.770;23.400;2023-12-20T12:42:19;133.50;;;55.95;;
32196;SDS011;18697;42.770;23.400;2023-12-20T12:44:46;150.68;;;60.45;;
32196;SDS011;18697;42.770;23.400;2023-12-20T12:47:12;120.53;;;50.17;;
32196;SDS011;18697;42.770;23.400;2023-12-20T12:49:37;105.70;;;46.92;;
32196;SDS011;18697;42.770;23.400;2023-12-20T12:52:02;113.07;;;49.25;;
32196;SDS011;18697;42.770;23.400;2023-12-20T12:54:28;127.63;;;54.72;;
32196;SDS011;18697;42.770;23.400;2023-12-20T12:56:53;137.10;;;56.05;;
32196;SDS011;18697;42.770;23.400;2023-12-20T12:59:19;150.60;;;53.42;;
32196;SDS011;18697;42.770;23.400;2023-12-20T13:01:44;137.45;;;56.10;;
32196;SDS011;18697;42.770;23.400;2023-12-20T13:04:10;147.98;;;53.58;;
32196;SDS011;18697;42.770;23.400;2023-12-20T13:06:36;151.00;;;53.88;;
32196;SDS011;18697;42.770;23.400;2023-12-20T13:09:03;157.32;;;54.70;;
32196;SDS011;18697;42.770;23.400;2023-12-20T13:11:29;148.65;;;53.25;;
32196;SDS011;18697;42.770;23.400;2023-12-20T13:13:56;167.15;;;56.25;;
32196;SDS011;18697;42.770;23.400;2023-12-20T13:16:22;184.07;;;56.63;;
32196;SDS011;18697;42.770;23.400;2023-12-20T13:18:48;175.38;;;63.22;;
32196;SDS011;18697;42.770;23.400;2023-12-20T13:21:13;141.38;;;56.85;;
32196;SDS011;18697;42.770;23.400;2023-12-20T13:23:39;135.30;;;55.25;;
32196;SDS011;18697;42.770;23.400;2023-12-20T13:26:04;156.75;;;61.15;;
32196;SDS011;18697;42.770;23.400;2023-12-20T13:28:29;150.13;;;56.95;;
32196;SDS011;18697;42.770;23.400;2023-12-20T13:30:55;133.23;;;55.60;;
32196;SDS011;18697;42.770;23.400;2023-12-20T13:33:20;129.50;;;54.17;;
32196;SDS011;18697;42.770;23.400;2023-12-20T13:35:46;137.10;;;54.17;;
32196;SDS011;18697;42.770;23.400;2023-12-20T13:38:12;152.85;;;64.05;;
32196;SDS011;18697;42.770;23.400;2023-12-20T13:40:38;167.40;;;67.10;;
32196;SDS011;18697;42.770;23.400;2023-12-20T13:43:04;164.52;;;65.40;;
32196;SDS011;18697;42.770;23.400;2023-12-20T13:45:29;147.45;;;60.88;;
32196;SDS011;18697;42.770;23.400;2023-12-20T13:47:54;141.95;;;55.70;;
32196;SDS011;18697;42.770;23.400;2023-12-20T13:50:20;154.65;;;55.10;;
32196;SDS011;18697;42.770;23.400;2023-12-20T13:52:45;118.72;;;53.05;;